Huvudsida
METAR-TAF:

METAR-TAF

Flygplatser :

Enontekis flygplats

Enontekis, Finland

latitud: 68-21-52N, longitud: 023-25-39E, höjd: 308 m

Aktuellt väderrapport

Denna rapport gjordes för 29 minuter sedan, klockan 09:25 UTC
Vind 1 kt från väst/sydväst
Temperatur -19°C
Fuktighet 84%
Tryck 1028 hPa
Sikt 10 km eller mer
Mulet på en höjd av 500 ft
lätta snöbyar

METAR: EFET 150925Z 24001KT 9999 -SHSN OVC005 M19/M21 Q1028

Tid: 11:54 (09:54 UTC)

Väderprognos

Denna rapport gjordes för 1 timme och 21 minuter sedan, klockan 08:33 UTC
Prognos gäller från 15 kl. 09 UTC till 15 kl. 18 UTC
Vind 5 kt från syd
Sikt: 9000 m
Mulet på en höjd av 500 ft
Sannolikhet 40%
från 15 kl. 09 UTC till 15 kl. 18 UTC
Sikt: 3000 m
på en höjd av 200 ft
lätt snö

TAF: EFET 150833Z 1509/1518 18005KT 9000 OVC005 PROB40 1509/1518 3000 -SN VV002

Aktuella väderrapporter och prognoser från 4000 flygplatser (METAR- och TAF-rapporter).

De tillgängliga stationerna syns som gula och röda prickar på kartan.

För musen över prickarna för att se namnen på stationerna.

Klicka sedan för att få väderrapporter och prognoser.

För att ändra kartan: Klicka på de gröna knapparna med ett svart kors på för att zooma in; den gröna knappen med ett streck på för att zooma ut; eller på de gröna pilarna för angränsande kartor.


METAR-TAF: